createdAt,value
2019-04-11T00:02:53.237Z,8.17
2019-04-11T00:07:01.770Z,8.60
2019-04-11T00:11:11.446Z,8.13
2019-04-11T00:15:20.309Z,6.40
2019-04-11T00:19:29.460Z,7.37
2019-04-11T00:23:38.641Z,7.00
2019-04-11T00:27:47.223Z,6.80
2019-04-11T00:31:56.917Z,7.03
2019-04-11T00:36:06.314Z,6.77
2019-04-11T00:40:15.193Z,8.87
2019-04-11T00:44:23.739Z,8.10
2019-04-11T00:48:33.435Z,7.87
2019-04-11T00:52:42.031Z,7.63
2019-04-11T00:56:50.659Z,6.90
2019-04-11T01:00:59.658Z,7.53
2019-04-11T01:05:09.538Z,6.77
2019-04-11T01:09:18.076Z,9.17
2019-04-11T01:13:26.557Z,9.60
2019-04-11T01:17:35.105Z,8.63
2019-04-11T01:21:44.501Z,8.00
2019-04-11T01:25:54.965Z,7.47
2019-04-11T01:30:09.860Z,7.90
2019-04-11T01:34:18.353Z,7.13
2019-04-11T01:38:28.264Z,7.63
2019-04-11T01:42:37.622Z,7.43
2019-04-11T01:46:46.496Z,7.87
2019-04-11T01:50:55.109Z,7.50
2019-04-11T01:55:03.991Z,8.33
2019-04-11T01:59:13.210Z,8.60
2019-04-11T02:03:33.115Z,6.60
2019-04-11T02:07:42.648Z,7.63
2019-04-11T02:11:52.037Z,7.67
2019-04-11T02:16:01.427Z,7.67
2019-04-11T02:20:10.148Z,7.90
2019-04-11T02:24:20.266Z,7.40
2019-04-11T02:28:29.204Z,8.10
2019-04-11T02:32:37.683Z,6.70
2019-04-11T02:36:46.587Z,6.33
2019-04-11T02:40:57.025Z,6.57
2019-04-11T02:45:19.864Z,6.53
2019-04-11T02:49:19.112Z,7.50
2019-04-11T02:53:29.688Z,7.40
2019-04-11T02:57:39.198Z,7.03
2019-04-11T03:01:50.512Z,7.47
2019-04-11T03:05:59.996Z,7.80
2019-04-11T03:10:11.844Z,5.90
2019-04-11T03:14:20.733Z,6.90
2019-04-11T03:18:47.401Z,7.03
2019-04-11T03:22:40.578Z,6.27
2019-04-11T03:26:49.715Z,6.43
2019-04-11T03:31:33.199Z,6.90
2019-04-11T03:36:03.944Z,7.53
2019-04-11T03:39:39.765Z,7.07
2019-04-11T03:43:41.854Z,6.43
2019-04-11T03:47:57.648Z,7.80
2019-04-11T03:51:50.885Z,8.47
2019-04-11T03:56:01.601Z,7.27
2019-04-11T04:00:14.277Z,9.83
2019-04-11T04:04:23.888Z,8.07
2019-04-11T04:08:34.259Z,7.80
2019-04-11T04:12:44.964Z,7.80
2019-04-11T04:17:11.177Z,7.30
2019-04-11T04:21:22.682Z,7.83
2019-04-11T04:25:32.496Z,7.73
2019-04-11T04:29:41.538Z,8.77
2019-04-11T04:33:51.517Z,7.70
2019-04-11T04:38:00.521Z,7.33
2019-04-11T04:42:34.077Z,8.20
2019-04-11T04:46:52.619Z,8.83
2019-04-11T04:50:50.514Z,9.47
2019-04-11T04:54:59.967Z,7.63
2019-04-11T04:59:11.535Z,7.57
2019-04-11T05:03:20.052Z,8.10
2019-04-11T05:07:32.201Z,7.00
2019-04-11T05:11:38.919Z,8.40
2019-04-11T05:15:48.974Z,8.80
2019-04-11T05:19:58.512Z,7.40
2019-04-11T05:24:07.412Z,8.10
2019-04-11T05:28:16.133Z,8.17
2019-04-11T05:32:27.133Z,7.90
2019-04-11T05:36:34.838Z,8.83
2019-04-11T05:40:43.501Z,8.10
2019-04-11T05:44:52.057Z,8.53
2019-04-11T05:49:13.965Z,9.83
2019-04-11T05:53:22.826Z,11.27
2019-04-11T05:57:36.741Z,10.17
2019-04-11T06:01:46.593Z,9.53
2019-04-11T06:05:59.822Z,8.57
2019-04-11T06:10:21.917Z,8.53
2019-04-11T06:14:35.362Z,8.33
2019-04-11T06:19:04.151Z,8.10
2019-04-11T06:23:14.934Z,7.73
2019-04-11T06:27:28.510Z,9.87
2019-04-11T06:31:42.311Z,8.30
2019-04-11T06:35:52.516Z,8.37
2019-04-11T06:40:02.706Z,8.13
2019-04-11T06:44:18.787Z,8.20
2019-04-11T06:48:31.792Z,9.10
2019-04-11T06:52:43.224Z,8.47
2019-04-11T06:56:53.809Z,8.60
2019-04-11T07:01:05.415Z,9.13
2019-04-11T07:05:18.189Z,8.83
2019-04-11T07:09:32.839Z,8.80
2019-04-11T07:13:46.123Z,9.33
2019-04-11T07:18:14.102Z,9.30
2019-04-11T07:22:41.063Z,10.78
2019-04-11T07:26:50.778Z,10.37
2019-04-11T07:31:16.879Z,10.65
2019-04-11T07:35:27.656Z,9.60
2019-04-11T07:39:42.636Z,10.00
2019-04-11T07:43:52.053Z,9.20
2019-04-11T07:48:08.732Z,9.43
2019-04-11T07:52:18.967Z,9.47
2019-04-11T07:56:31.742Z,9.10
2019-04-11T08:00:46.116Z,10.57
2019-04-11T08:04:57.570Z,8.97
2019-04-11T08:09:33.522Z,9.77
2019-04-11T08:13:47.156Z,9.63
2019-04-11T08:17:57.422Z,10.67
2019-04-11T08:22:10.602Z,10.10
2019-04-11T08:26:37.795Z,9.10
2019-04-11T08:31:05.804Z,10.90
2019-04-11T08:35:33.644Z,10.90
2019-04-11T08:39:43.043Z,10.50
2019-04-11T08:43:51.750Z,10.57
2019-04-11T08:52:42.814Z,11.00
2019-04-11T08:56:51.541Z,10.30
2019-04-11T09:01:01.792Z,10.50
2019-04-11T09:05:31.352Z,10.00
2019-04-11T09:09:45.540Z,10.07
2019-04-11T09:13:55.932Z,10.50
2019-04-11T09:18:09.168Z,11.00
2019-04-11T09:22:33.356Z,10.10
2019-04-11T09:27:00.370Z,10.20
2019-04-11T09:31:15.169Z,10.50
2019-04-11T09:35:27.964Z,10.43
2019-04-11T09:39:47.657Z,9.83
2019-04-11T09:43:58.141Z,9.90
2019-04-11T09:48:14.759Z,8.60
2019-04-11T09:52:20.591Z,9.30
2019-04-11T09:56:47.282Z,7.50
2019-04-11T10:01:14.127Z,8.50
2019-04-11T10:05:24.464Z,9.40
2019-04-11T10:09:35.709Z,8.70
2019-04-11T10:14:02.209Z,8.23
2019-04-11T10:18:33.766Z,8.10
2019-04-11T10:22:56.519Z,8.00
2019-04-11T10:27:12.574Z,8.43
2019-04-11T10:31:22.189Z,7.50
2019-04-11T10:35:36.518Z,9.40
2019-04-11T10:39:53.576Z,8.93
2019-04-11T10:44:03.008Z,9.33
2019-04-11T10:48:11.688Z,9.73
2019-04-11T10:52:24.939Z,8.80
2019-04-11T10:56:35.323Z,9.60
2019-04-11T11:01:01.820Z,9.27
2019-04-11T11:05:12.815Z,8.77
2019-04-11T11:09:39.340Z,9.37
2019-04-11T11:13:56.340Z,9.20
2019-04-11T11:18:48.130Z,9.23
2019-04-11T11:22:44.459Z,7.83
2019-04-11T11:26:55.589Z,8.40
2019-04-11T11:31:10.441Z,8.10
2019-04-11T11:35:27.049Z,8.80
2019-04-11T11:39:33.361Z,8.63
2019-04-11T11:43:43.236Z,10.67
2019-04-11T11:48:14.951Z,11.40
2019-04-11T11:52:22.805Z,10.40
2019-04-11T11:56:34.032Z,10.20
2019-04-11T12:00:42.671Z,8.60
2019-04-11T12:04:56.088Z,10.07
2019-04-11T12:09:12.008Z,8.90
2019-04-11T12:13:40.573Z,10.50
2019-04-11T12:18:07.445Z,9.10
2019-04-11T12:22:16.469Z,9.30
2019-04-11T12:26:28.817Z,10.70
2019-04-11T12:30:43.969Z,10.80
2019-04-11T12:35:06.320Z,10.07
2019-04-11T12:39:31.765Z,10.40
2019-04-11T12:43:58.382Z,10.10
2019-04-11T12:48:06.863Z,11.00
2019-04-11T12:52:33.035Z,11.70
2019-04-11T12:56:52.155Z,10.87
2019-04-11T13:01:02.302Z,11.10
2019-04-11T13:05:12.564Z,11.13
2019-04-11T13:09:40.906Z,11.60
2019-04-11T13:14:06.019Z,10.80
2019-04-11T13:18:16.144Z,10.77
2019-04-11T13:22:26.713Z,10.77
2019-04-11T13:26:52.917Z,11.13
2019-04-11T13:31:14.835Z,10.80
2019-04-11T13:35:39.840Z,10.97
2019-04-11T13:39:49.947Z,10.93
2019-04-11T13:43:58.437Z,11.50
2019-04-11T13:48:25.002Z,12.03
2019-04-11T13:52:50.435Z,11.60
2019-04-11T13:57:16.886Z,10.80
2019-04-11T14:01:25.863Z,12.10
2019-04-11T14:05:39.051Z,13.10
2019-04-11T14:09:49.174Z,11.40
2019-04-11T14:13:59.295Z,10.30
2019-04-11T14:18:18.221Z,11.50
2019-04-11T14:22:29.252Z,10.80
2019-04-11T14:26:41.930Z,11.73
2019-04-11T14:31:01.565Z,11.87
2019-04-11T14:35:11.747Z,11.97
2019-04-11T14:39:28.396Z,12.00
2019-04-11T14:43:38.865Z,11.90
2019-04-11T14:47:52.074Z,11.60
2019-04-11T14:52:16.997Z,11.13
2019-04-11T14:56:29.286Z,10.70
2019-04-11T15:00:38.459Z,11.90
2019-04-11T15:04:51.288Z,11.50
2019-04-11T15:09:07.239Z,11.00
2019-04-11T15:13:17.977Z,10.80
2019-04-11T15:17:31.166Z,11.73
2019-04-11T15:21:59.414Z,11.87
2019-04-11T15:26:11.962Z,11.10
2019-04-11T15:30:24.992Z,11.53
2019-04-11T15:34:40.790Z,11.07
2019-04-11T15:38:56.800Z,11.30
2019-04-11T15:43:23.035Z,11.77
2019-04-11T15:47:31.687Z,9.93
2019-04-11T15:51:41.702Z,11.80
2019-04-11T15:56:08.370Z,12.10
2019-04-11T16:05:02.125Z,11.57
2019-04-11T16:09:11.938Z,11.60
2019-04-11T16:13:37.486Z,12.67
2019-04-11T16:18:06.411Z,12.58
2019-04-11T16:22:19.285Z,12.10
2019-04-11T16:26:29.431Z,10.93
2019-04-11T16:30:40.296Z,11.90
2019-04-11T16:34:58.752Z,10.73
2019-04-11T16:39:19.960Z,12.07
2019-04-11T16:43:28.065Z,11.20
2019-04-11T16:47:38.208Z,10.17
2019-04-11T16:51:47.183Z,11.13
2019-04-11T16:55:55.682Z,12.00
2019-04-11T17:00:09.137Z,10.90
2019-04-11T17:04:17.747Z,10.63
2019-04-11T17:08:27.850Z,11.13
2019-04-11T17:12:36.327Z,11.57
2019-04-11T17:16:44.882Z,11.70
2019-04-11T17:20:53.338Z,12.27
2019-04-11T17:25:01.824Z,13.17
2019-04-11T17:29:10.403Z,12.73
2019-04-11T17:33:19.159Z,11.50
2019-04-11T17:37:27.615Z,11.80
2019-04-11T17:41:36.159Z,11.47
2019-04-11T17:45:44.606Z,10.87
2019-04-11T17:49:53.082Z,11.20
2019-04-11T17:54:01.596Z,11.00
2019-04-11T17:58:10.176Z,11.03
2019-04-11T18:02:18.827Z,10.60
2019-04-11T18:06:27.326Z,10.90
2019-04-11T18:10:35.775Z,10.67
2019-04-11T18:14:44.274Z,11.47
2019-04-11T18:18:52.749Z,11.00
2019-04-11T18:23:01.228Z,11.00
2019-04-11T18:27:09.671Z,9.77
2019-04-11T18:31:19.111Z,10.20
2019-04-11T18:35:31.662Z,10.93
2019-04-11T18:39:37.878Z,9.20
2019-04-11T18:43:47.083Z,9.20
2019-04-11T18:47:56.376Z,9.67
2019-04-11T18:52:04.994Z,9.83
2019-04-11T18:56:13.831Z,10.80
2019-04-11T19:00:23.626Z,9.67
2019-04-11T19:04:33.028Z,9.93
2019-04-11T19:08:43.460Z,8.93
2019-04-11T19:12:52.099Z,9.30
2019-04-11T19:17:00.605Z,10.17
2019-04-11T19:21:09.410Z,10.67
2019-04-11T19:25:17.986Z,10.60
2019-04-11T19:29:26.494Z,10.28
2019-04-11T19:33:34.965Z,11.63
2019-04-11T19:37:43.510Z,12.30
2019-04-11T19:41:51.983Z,10.40
2019-04-11T19:46:00.593Z,11.65
2019-04-11T19:50:10.026Z,11.10
2019-04-11T19:54:18.493Z,10.40
2019-04-11T19:58:29.035Z,11.00
2019-04-11T20:02:37.527Z,10.00
2019-04-11T20:06:46.012Z,10.43
2019-04-11T20:10:54.456Z,9.80
2019-04-11T20:15:05.106Z,10.03
2019-04-11T20:19:13.394Z,8.50
2019-04-11T20:23:21.958Z,8.77
2019-04-11T20:27:30.403Z,9.77
2019-04-11T20:31:38.931Z,10.87
2019-04-11T20:35:47.447Z,9.43
2019-04-11T20:39:55.944Z,9.67
2019-04-11T20:44:04.634Z,11.40
2019-04-11T20:48:13.388Z,10.07
2019-04-11T20:52:21.858Z,10.27
2019-04-11T20:56:30.306Z,10.30
2019-04-11T21:00:49.614Z,9.07
2019-04-11T21:04:49.659Z,10.20
2019-04-11T21:08:58.099Z,10.03
2019-04-11T21:13:07.225Z,10.60
2019-04-11T21:17:16.310Z,9.03
2019-04-11T21:21:25.111Z,10.73
2019-04-11T21:25:34.250Z,9.50
2019-04-11T21:29:42.750Z,10.20
2019-04-11T21:33:51.584Z,10.67
2019-04-11T21:38:00.337Z,9.30
2019-04-11T21:42:09.506Z,9.30
2019-04-11T21:46:18.048Z,9.47
2019-04-11T21:50:26.548Z,9.30
2019-04-11T21:54:35.048Z,10.30
2019-04-11T21:58:43.499Z,8.63
2019-04-11T22:02:54.382Z,9.40
2019-04-11T22:07:02.251Z,9.07
2019-04-11T22:11:10.789Z,9.43
2019-04-11T22:15:19.303Z,9.17
2019-04-11T22:19:28.008Z,9.20
2019-04-11T22:23:48.082Z,10.07
2019-04-11T22:27:46.774Z,9.60
2019-04-11T22:31:56.042Z,8.57
2019-04-11T22:36:05.027Z,8.30
2019-04-11T22:40:13.509Z,8.50
2019-04-11T22:44:21.993Z,8.40
2019-04-11T22:48:30.451Z,9.13
2019-04-11T22:52:39.812Z,8.50
2019-04-11T22:56:49.111Z,8.70
2019-04-11T23:00:57.575Z,9.77
2019-04-11T23:05:06.130Z,8.57
2019-04-11T23:09:16.614Z,9.10
2019-04-11T23:13:24.827Z,7.60
2019-04-11T23:17:33.549Z,7.70
2019-04-11T23:21:42.266Z,7.03
2019-04-11T23:25:51.273Z,8.17
2019-04-11T23:29:59.764Z,7.33
2019-04-11T23:34:08.251Z,9.10
2019-04-11T23:38:16.747Z,8.37
2019-04-11T23:42:25.188Z,8.30
2019-04-11T23:46:33.655Z,7.80
2019-04-11T23:50:42.391Z,7.90
2019-04-11T23:54:50.856Z,7.80
2019-04-11T23:59:01.720Z,7.30
